createdAt,value
2023-05-05T00:01:40.017Z,100422.17
2023-05-05T00:02:42.891Z,100413.54
2023-05-05T00:03:45.336Z,100422.28
2023-05-05T00:04:47.700Z,100416.09
2023-05-05T00:05:55.242Z,100416.22
2023-05-05T00:06:57.961Z,100410.86
2023-05-05T00:08:00.965Z,100411.83
2023-05-05T00:09:07.241Z,100410.01
2023-05-05T00:10:10.630Z,100408.19
2023-05-05T00:11:15.799Z,100398.59
2023-05-05T00:12:17.930Z,100405.77
2023-05-05T00:13:25.501Z,100407.59
2023-05-05T00:14:31.060Z,100405.92
2023-05-05T00:15:36.102Z,100398.74
2023-05-05T00:16:38.555Z,100400.57
2023-05-05T00:17:45.680Z,100389.00
2023-05-05T00:18:48.157Z,100394.36
2023-05-05T00:19:51.363Z,100400.57
2023-05-05T00:20:55.478Z,100399.72
2023-05-05T00:21:57.762Z,100396.06
2023-05-05T00:23:02.618Z,100399.86
2023-05-05T00:24:07.489Z,100395.48
2023-05-05T00:25:10.062Z,100403.63
2023-05-05T00:26:16.791Z,100408.44
2023-05-05T00:27:20.870Z,100417.32
2023-05-05T00:28:25.613Z,100417.32
2023-05-05T00:29:27.784Z,100416.31
2023-05-05T00:30:30.603Z,100419.84
2023-05-05T00:31:35.776Z,100417.17
2023-05-05T00:32:38.095Z,100417.32
2023-05-05T00:33:42.019Z,100413.79
2023-05-05T00:34:47.124Z,100408.55
2023-05-05T00:35:49.191Z,100412.08
2023-05-05T00:36:51.667Z,100412.94
2023-05-05T00:37:55.161Z,100418.30
2023-05-05T00:38:57.267Z,100415.47
2023-05-05T00:39:59.353Z,100421.55
2023-05-05T00:41:01.653Z,100417.02
2023-05-05T00:42:06.741Z,100423.11
2023-05-05T00:43:09.063Z,100418.46
2023-05-05T00:44:11.221Z,100430.88
2023-05-05T00:45:15.290Z,100425.52
2023-05-05T00:46:26.566Z,100424.52
2023-05-05T00:47:29.161Z,100423.55
2023-05-05T00:48:32.087Z,100432.44
2023-05-05T00:49:34.709Z,100429.61
2023-05-05T00:50:39.769Z,100427.78
2023-05-05T00:51:42.629Z,100433.14
2023-05-05T00:52:45.154Z,100431.16
2023-05-05T00:53:48.055Z,100430.19
2023-05-05T00:54:51.964Z,100427.37
2023-05-05T00:55:54.297Z,100430.05
2023-05-05T00:56:56.656Z,100422.86
2023-05-05T00:57:59.644Z,100429.08
2023-05-05T00:59:02.239Z,100429.92
2023-05-05T01:00:06.296Z,100429.08
2023-05-05T01:01:10.371Z,100424.57
2023-05-05T01:02:12.882Z,100425.54
2023-05-05T01:03:16.439Z,100426.24
2023-05-05T01:04:18.805Z,100424.42
2023-05-05T01:05:22.314Z,100424.30
2023-05-05T01:06:43.130Z,100424.42
2023-05-05T01:08:06.146Z,100424.57
2023-05-05T01:09:31.968Z,100428.10
2023-05-05T01:10:45.742Z,100426.39
2023-05-05T01:12:12.118Z,100417.39
2023-05-05T01:14:39.610Z,100420.93
2023-05-05T01:15:50.850Z,100433.58
2023-05-05T01:18:13.431Z,100417.82
2023-05-05T01:20:46.987Z,100420.06
2023-05-05T01:21:58.594Z,100423.81
2023-05-05T01:23:05.099Z,100428.20
2023-05-05T01:24:32.277Z,100427.08
2023-05-05T01:25:53.315Z,100427.91
2023-05-05T01:27:16.117Z,100420.72
2023-05-05T01:30:35.382Z,100421.73
2023-05-05T01:31:41.878Z,100428.05
2023-05-05T01:32:52.914Z,100423.55
2023-05-05T01:34:00.526Z,100416.64
2023-05-05T01:35:15.111Z,100421.14
2023-05-05T01:36:30.511Z,100426.34
2023-05-05T01:37:39.550Z,100423.67
2023-05-05T01:38:43.936Z,100424.52
2023-05-05T01:39:50.181Z,100420.88
2023-05-05T01:40:59.201Z,100412.84
2023-05-05T01:42:09.049Z,100420.02
2023-05-05T01:43:13.167Z,100417.19
2023-05-05T01:44:16.436Z,100425.11
2023-05-05T01:45:20.664Z,100425.96
2023-05-05T01:46:24.675Z,100419.59
2023-05-05T01:47:28.405Z,100417.77
2023-05-05T01:48:30.742Z,100418.62
2023-05-05T01:49:34.378Z,100411.30
2023-05-05T01:50:36.971Z,100416.53
2023-05-05T01:51:39.653Z,100419.21
2023-05-05T01:52:42.225Z,100412.30
2023-05-05T01:53:44.675Z,100423.02
2023-05-05T01:54:47.442Z,100413.27
2023-05-05T01:55:51.892Z,100413.27
2023-05-05T01:56:55.895Z,100421.30
2023-05-05T01:58:00.647Z,100414.13
2023-05-05T01:59:04.491Z,100417.77
2023-05-05T02:00:09.778Z,100416.09
2023-05-05T02:01:24.005Z,100422.43
2023-05-05T02:02:28.428Z,100418.90
2023-05-05T02:03:31.154Z,100415.52
2023-05-05T02:04:35.655Z,100419.31
2023-05-05T02:05:39.180Z,100410.58
2023-05-05T02:06:43.202Z,100417.76
2023-05-05T02:07:46.172Z,100410.84
2023-05-05T02:08:49.796Z,100415.34
2023-05-05T02:09:52.644Z,100420.70
2023-05-05T02:10:55.996Z,100417.02
2023-05-05T02:11:59.488Z,100415.34
2023-05-05T02:13:02.346Z,100417.88
2023-05-05T02:14:06.163Z,100417.02
2023-05-05T02:15:10.190Z,100422.38
2023-05-05T02:16:13.729Z,100418.03
2023-05-05T02:17:17.001Z,100419.84
2023-05-05T02:18:20.295Z,100423.37
2023-05-05T02:20:42.676Z,100419.75
2023-05-05T02:21:45.302Z,100420.82
2023-05-05T02:22:48.079Z,100423.50
2023-05-05T02:23:50.248Z,100432.27
2023-05-05T02:24:52.831Z,100430.56
2023-05-05T02:25:58.800Z,100421.83
2023-05-05T02:27:03.420Z,100426.17
2023-05-05T02:28:09.308Z,100428.03
2023-05-05T02:29:19.710Z,100425.47
2023-05-05T02:30:22.478Z,100428.15
2023-05-05T02:31:26.790Z,100422.80
2023-05-05T02:32:32.529Z,100423.64
2023-05-05T02:33:35.135Z,100425.47
2023-05-05T02:34:39.593Z,100429.12
2023-05-05T02:35:44.041Z,100428.85
2023-05-05T02:36:51.842Z,100431.00
2023-05-05T02:39:18.311Z,100424.19
2023-05-05T02:40:23.330Z,100429.23
2023-05-05T02:41:27.005Z,100430.64
2023-05-05T02:43:48.301Z,100427.31
2023-05-05T02:44:54.003Z,100435.34
2023-05-05T02:45:56.639Z,100430.84
2023-05-05T02:46:59.571Z,100428.98
2023-05-05T02:48:05.378Z,100429.83
2023-05-05T02:49:09.568Z,100421.80
2023-05-05T02:50:12.806Z,100423.62
2023-05-05T02:51:18.833Z,100428.98
2023-05-05T02:52:21.040Z,100423.77
2023-05-05T02:53:26.526Z,100419.38
2023-05-05T02:54:31.341Z,100421.21
2023-05-05T02:55:39.407Z,100417.83
2023-05-05T02:56:49.800Z,100415.16
2023-05-05T02:58:07.796Z,100409.09
2023-05-05T02:59:42.960Z,100411.77
2023-05-05T03:00:55.552Z,100411.89
2023-05-05T03:02:02.056Z,100412.74
2023-05-05T03:03:09.265Z,100408.39
2023-05-05T03:04:21.226Z,100411.06
2023-05-05T03:05:32.036Z,100407.66
2023-05-05T03:06:38.282Z,100412.31
2023-05-05T03:07:44.551Z,100412.31
2023-05-05T03:09:12.011Z,100412.58
2023-05-05T03:10:19.880Z,100412.58
2023-05-05T03:11:27.264Z,100410.76
2023-05-05T03:12:33.150Z,100413.44
2023-05-05T03:13:39.607Z,100416.97
2023-05-05T03:14:43.099Z,100423.18
2023-05-05T03:15:49.218Z,100423.87
2023-05-05T03:16:54.576Z,100425.59
2023-05-05T03:18:00.917Z,100422.75
2023-05-05T03:19:05.545Z,100420.93
2023-05-05T03:20:10.453Z,100427.27
2023-05-05T03:21:14.151Z,100430.09
2023-05-05T03:22:17.190Z,100427.53
2023-05-05T03:23:21.059Z,100424.15
2023-05-05T03:24:25.037Z,100429.08
2023-05-05T03:26:59.309Z,100429.77
2023-05-05T03:28:04.586Z,100424.94
2023-05-05T03:29:06.942Z,100423.37
2023-05-05T03:30:11.357Z,100426.33
2023-05-05T03:31:15.484Z,100431.95
2023-05-05T03:32:17.976Z,100441.36
2023-05-05T03:33:20.618Z,100434.41
2023-05-05T03:34:22.699Z,100439.92
2023-05-05T03:35:24.965Z,100435.65
2023-05-05T03:36:29.386Z,100434.09
2023-05-05T03:37:31.862Z,100431.67
2023-05-05T03:38:34.651Z,100439.85
2023-05-05T03:39:37.921Z,100437.33
2023-05-05T03:40:44.488Z,100438.44
2023-05-05T03:41:45.476Z,100438.55
2023-05-05T03:42:47.899Z,100442.20
2023-05-05T03:43:51.060Z,100434.47
2023-05-05T03:44:53.376Z,100439.81
2023-05-05T03:45:55.759Z,100432.76
2023-05-05T03:46:58.651Z,100427.52
2023-05-05T03:48:02.777Z,100429.48
2023-05-05T03:49:05.851Z,100433.28
2023-05-05T03:50:09.277Z,100441.31
2023-05-05T03:51:12.600Z,100436.92
2023-05-05T03:52:15.133Z,100437.07
2023-05-05T03:53:18.521Z,100440.72
2023-05-05T03:54:21.250Z,100434.55
2023-05-05T03:55:23.396Z,100431.02
2023-05-05T03:56:26.530Z,100440.72
2023-05-05T03:57:28.907Z,100431.02
2023-05-05T03:58:31.087Z,100431.72
2023-05-05T03:59:33.245Z,100433.54
2023-05-05T04:00:35.522Z,100438.89
2023-05-05T04:01:37.888Z,100444.13
2023-05-05T04:02:40.222Z,100444.24
2023-05-05T04:03:43.689Z,100435.52
2023-05-05T04:04:45.923Z,100445.36
2023-05-05T04:05:49.993Z,100448.18
2023-05-05T04:06:52.298Z,100447.33
2023-05-05T04:07:54.852Z,100447.44
2023-05-05T04:08:57.143Z,100448.44
2023-05-05T04:09:59.624Z,100446.73
2023-05-05T04:11:02.267Z,100446.73
2023-05-05T04:12:05.640Z,100454.91
2023-05-05T04:13:07.981Z,100450.52
2023-05-05T04:14:10.961Z,100455.02
2023-05-05T04:15:13.296Z,100444.31
2023-05-05T04:16:16.261Z,100449.81
2023-05-05T04:17:18.908Z,100450.66
2023-05-05T04:18:21.466Z,100448.95
2023-05-05T04:19:23.754Z,100452.59
2023-05-05T04:20:26.357Z,100451.78
2023-05-05T04:21:29.679Z,100458.09
2023-05-05T04:22:31.935Z,100450.07
2023-05-05T04:23:34.290Z,100450.07
2023-05-05T04:24:36.765Z,100453.86
2023-05-05T04:25:39.933Z,100447.53
2023-05-05T04:26:43.281Z,100443.27
2023-05-05T04:27:46.523Z,100438.77
2023-05-05T04:28:49.906Z,100440.73
2023-05-05T04:29:52.522Z,100429.19
2023-05-05T04:30:55.743Z,100434.68
2023-05-05T04:31:58.302Z,100434.79
2023-05-05T04:33:00.550Z,100440.28
2023-05-05T04:34:06.100Z,100442.11
2023-05-05T04:35:08.920Z,100443.07
2023-05-05T04:36:13.443Z,100445.75
2023-05-05T04:37:16.730Z,100448.42
2023-05-05T04:38:19.545Z,100450.27
2023-05-05T04:39:22.421Z,100454.63
2023-05-05T04:40:25.853Z,100453.77
2023-05-05T04:41:30.106Z,100464.36
2023-05-05T04:42:32.837Z,100465.21
2023-05-05T04:43:36.334Z,100467.74
2023-05-05T04:44:38.587Z,100470.30
2023-05-05T04:45:41.308Z,100474.80
2023-05-05T04:46:43.970Z,100471.27
2023-05-05T04:47:46.178Z,100479.30
2023-05-05T04:48:48.553Z,100473.09
2023-05-05T04:49:50.834Z,100478.58
2023-05-05T04:50:54.035Z,100475.16
2023-05-05T04:51:56.891Z,100473.49
2023-05-05T04:52:59.049Z,100477.13
2023-05-05T04:54:01.794Z,100476.28
2023-05-05T04:55:04.497Z,100476.28
2023-05-05T04:56:07.269Z,100482.48
2023-05-05T04:57:09.527Z,100475.42
2023-05-05T04:58:12.261Z,100479.09
2023-05-05T04:59:15.095Z,100489.80
2023-05-05T05:00:17.577Z,100489.91
2023-05-05T05:01:19.821Z,100490.05
2023-05-05T05:02:23.451Z,100476.67
2023-05-05T05:03:25.909Z,100477.64
2023-05-05T05:04:30.205Z,100477.64
2023-05-05T05:05:32.475Z,100475.97
2023-05-05T05:06:34.534Z,100481.42
2023-05-05T05:07:36.499Z,100477.18
2023-05-05T05:08:41.681Z,100484.48
2023-05-05T05:09:43.932Z,100482.78
2023-05-05T05:10:46.082Z,100485.70
2023-05-05T05:11:50.580Z,100484.03
2023-05-05T05:12:52.807Z,100475.30
2023-05-05T05:13:56.594Z,100477.23
2023-05-05T05:14:58.875Z,100479.05
2023-05-05T05:16:02.052Z,100479.90
2023-05-05T05:17:06.580Z,100479.05
2023-05-05T05:18:08.913Z,100482.57
2023-05-05T05:19:11.063Z,100485.25
2023-05-05T05:20:14.720Z,100492.41
2023-05-05T05:21:16.673Z,100483.82
2023-05-05T05:22:18.915Z,100489.03
2023-05-05T05:23:21.091Z,100485.64
2023-05-05T05:24:23.243Z,100491.23
2023-05-05T05:25:25.394Z,100483.47
2023-05-05T05:26:27.970Z,100488.81
2023-05-05T05:27:30.638Z,100492.34
2023-05-05T05:28:33.324Z,100491.37
2023-05-05T05:29:35.572Z,100486.85
2023-05-05T05:30:37.641Z,100490.38
2023-05-05T05:31:40.956Z,100494.05
2023-05-05T05:32:43.251Z,100498.55
2023-05-05T05:33:45.577Z,100496.83
2023-05-05T05:34:49.541Z,100496.97
2023-05-05T05:35:51.829Z,100498.79
2023-05-05T05:36:54.960Z,100501.33
2023-05-05T05:38:01.512Z,100505.81
2023-05-05T05:39:03.844Z,100502.89
2023-05-05T05:40:08.362Z,100500.22
2023-05-05T05:41:10.745Z,100501.93
2023-05-05T05:42:13.656Z,100492.95
2023-05-05T05:43:15.910Z,100497.19
2023-05-05T05:44:19.306Z,100495.23
2023-05-05T05:45:22.761Z,100496.80
2023-05-05T05:46:24.934Z,100497.51
2023-05-05T05:47:28.128Z,100495.58
2023-05-05T05:48:35.340Z,100493.62
2023-05-05T05:49:41.898Z,100496.89
2023-05-05T05:50:44.919Z,100496.50
2023-05-05T05:51:49.941Z,100501.45
2023-05-05T05:54:07.201Z,100494.29
2023-05-05T05:55:10.678Z,100501.30
2023-05-05T05:56:17.413Z,100502.61
2023-05-05T05:57:21.128Z,100498.81
2023-05-05T05:58:24.531Z,100497.45
2023-05-05T05:59:28.563Z,100496.34
2023-05-05T06:01:42.075Z,100498.41
2023-05-05T06:02:46.623Z,100501.89
2023-05-05T06:03:50.732Z,100506.13
2023-05-05T06:04:56.061Z,100505.02
2023-05-05T06:05:58.411Z,100499.41
2023-05-05T06:07:01.351Z,100500.97
2023-05-05T06:08:05.613Z,100504.24
2023-05-05T06:09:10.745Z,100495.91
2023-05-05T06:10:27.194Z,100498.34
2023-05-05T06:11:24.472Z,100506.10
2023-05-05T06:12:28.257Z,100507.55
2023-05-05T06:13:31.670Z,100507.17
2023-05-05T06:14:37.540Z,100504.23
2023-05-05T06:15:44.468Z,100506.66
2023-05-05T06:16:48.826Z,100517.81
2023-05-05T06:17:56.764Z,100503.30
2023-05-05T06:18:59.538Z,100505.72
2023-05-05T06:20:03.166Z,100502.77
2023-05-05T06:21:07.278Z,100502.63
2023-05-05T06:22:14.019Z,100507.86
2023-05-05T06:23:16.519Z,100499.56
2023-05-05T06:24:27.417Z,100503.80
2023-05-05T06:25:36.772Z,100504.52
2023-05-05T06:26:39.439Z,100501.56
2023-05-05T06:27:43.002Z,100500.44
2023-05-05T06:28:45.568Z,100490.44
2023-05-05T06:29:49.055Z,100495.52
2023-05-05T06:30:55.136Z,100492.73
2023-05-05T06:33:10.793Z,100495.00
2023-05-05T06:34:18.278Z,100498.64
2023-05-05T06:35:21.463Z,100492.16
2023-05-05T06:36:24.136Z,100498.11
2023-05-05T06:37:27.546Z,100489.80
2023-05-05T06:38:32.750Z,100490.38
2023-05-05T06:39:39.983Z,100495.32
2023-05-05T06:40:43.907Z,100486.16
2023-05-05T06:41:48.773Z,100492.95
2023-05-05T06:42:51.513Z,100492.53
2023-05-05T06:43:55.491Z,100500.30
2023-05-05T06:44:57.664Z,100492.10
2023-05-05T06:46:01.535Z,100494.66
2023-05-05T06:47:03.872Z,100491.83
2023-05-05T06:48:06.164Z,100483.67
2023-05-05T06:49:08.652Z,100493.38
2023-05-05T06:50:11.712Z,100493.27
2023-05-05T06:51:13.870Z,100492.14
2023-05-05T06:52:17.578Z,100491.28
2023-05-05T06:53:20.158Z,100501.73
2023-05-05T06:54:29.210Z,100493.53
2023-05-05T06:55:34.015Z,100495.09
2023-05-05T06:56:36.367Z,100502.05
2023-05-05T06:57:39.957Z,100493.84
2023-05-05T06:58:46.201Z,100494.42
2023-05-05T06:59:56.158Z,100495.16
2023-05-05T07:01:02.685Z,100495.85
2023-05-05T07:02:05.454Z,100492.20
2023-05-05T07:03:10.515Z,100490.37
2023-05-05T07:05:47.847Z,100488.95
2023-05-05T07:06:52.639Z,100490.63
2023-05-05T07:07:57.032Z,100504.47
2023-05-05T07:09:04.381Z,100504.07
2023-05-05T07:10:18.348Z,100492.91
2023-05-05T07:11:23.194Z,100495.31
2023-05-05T07:12:27.472Z,100502.92
2023-05-05T07:13:29.897Z,100498.83
2023-05-05T07:14:33.603Z,100491.34
2023-05-05T07:15:35.804Z,100504.33
2023-05-05T07:16:40.632Z,100504.91
2023-05-05T07:17:45.649Z,100508.85
2023-05-05T07:18:47.935Z,100503.90
2023-05-05T07:19:49.927Z,100504.19
2023-05-05T07:20:52.917Z,100507.28
2023-05-05T07:21:55.607Z,100500.62
2023-05-05T07:23:01.537Z,100493.70
2023-05-05T07:24:04.206Z,100503.87
2023-05-05T07:25:12.089Z,100489.98
2023-05-05T07:26:15.026Z,100495.67
2023-05-05T07:28:37.101Z,100492.47
2023-05-05T07:29:39.185Z,100487.84
2023-05-05T07:30:42.462Z,100506.89
2023-05-05T07:31:46.354Z,100504.59
2023-05-05T07:32:49.610Z,100499.66
2023-05-05T07:33:51.875Z,100498.34
2023-05-05T07:34:54.332Z,100496.05
2023-05-05T07:35:57.212Z,100499.99
2023-05-05T07:36:59.718Z,100499.40
2023-05-05T07:38:02.492Z,100494.41
2023-05-05T07:39:04.561Z,100498.35
2023-05-05T07:40:08.260Z,100492.51
2023-05-05T07:41:10.672Z,100484.02
2023-05-05T07:42:13.321Z,100486.23
2023-05-05T07:43:15.677Z,100483.94
2023-05-05T07:44:17.865Z,100481.63
2023-05-05T07:45:20.404Z,100491.11
2023-05-05T07:46:23.356Z,100485.29
2023-05-05T07:47:25.404Z,100484.85
2023-05-05T07:48:28.225Z,100491.61
2023-05-05T07:49:30.346Z,100467.09
2023-05-05T07:50:32.573Z,100474.17
2023-05-05T18:06:04.778Z,100383.72
2023-05-05T18:07:06.869Z,100387.70
2023-05-05T18:08:09.384Z,100382.63
2023-05-05T18:09:11.814Z,100386.31
2023-05-05T18:10:15.235Z,100381.08
2023-05-05T18:11:19.008Z,100387.45
2023-05-05T18:12:23.193Z,100386.59
2023-05-05T18:13:30.127Z,100391.95
2023-05-05T18:14:32.168Z,100384.03
2023-05-05T18:15:36.704Z,100388.58
2023-05-05T18:16:40.969Z,100399.31
2023-05-05T18:17:46.118Z,100398.46
2023-05-05T18:18:50.966Z,100399.44
2023-05-05T18:20:07.484Z,100401.14
2023-05-05T18:21:15.722Z,100402.97
2023-05-05T18:22:19.439Z,100397.61
2023-05-05T18:23:22.142Z,100397.61
2023-05-05T18:24:25.990Z,100402.81
2023-05-05T18:25:30.117Z,100407.20
2023-05-05T18:26:32.959Z,100400.98
2023-05-05T18:27:41.319Z,100404.52
2023-05-05T18:28:43.456Z,100406.35
2023-05-05T18:29:45.947Z,100401.99
2023-05-05T18:30:48.210Z,100397.61
2023-05-05T18:31:51.495Z,100400.45
2023-05-05T18:32:54.708Z,100408.49
2023-05-05T18:33:57.014Z,100407.64
2023-05-05T18:35:00.887Z,100404.11
2023-05-05T18:36:43.037Z,100402.40
2023-05-05T18:38:49.530Z,100406.64
2023-05-05T18:39:57.523Z,100406.09
2023-05-05T18:41:00.052Z,100406.09
2023-05-05T18:42:02.637Z,100405.08
2023-05-05T18:43:04.914Z,100402.56
2023-05-05T18:44:07.091Z,100405.23
2023-05-05T18:45:10.649Z,100401.58
2023-05-05T18:46:15.258Z,100403.41
2023-05-05T18:47:17.861Z,100400.73
2023-05-05T18:48:21.049Z,100399.87
2023-05-05T18:49:23.563Z,100404.27
2023-05-05T18:50:27.148Z,100400.73
2023-05-05T18:51:29.452Z,100404.27
2023-05-05T18:52:32.438Z,100405.23
2023-05-05T18:53:34.677Z,100398.17
2023-05-05T18:54:37.958Z,100406.37
2023-05-05T18:55:44.195Z,100398.45
2023-05-05T18:56:54.275Z,100397.63
2023-05-05T18:57:56.773Z,100397.75
2023-05-05T18:59:00.830Z,100406.77
2023-05-05T19:00:04.018Z,100405.20
2023-05-05T19:01:08.286Z,100400.69
2023-05-05T19:03:38.021Z,100406.09
2023-05-05T19:04:43.434Z,100395.59
2023-05-05T19:05:51.138Z,100400.14
2023-05-05T19:07:00.149Z,100400.14
2023-05-05T19:08:06.640Z,100399.29
2023-05-05T19:09:13.084Z,100400.27
2023-05-05T19:10:15.322Z,100404.77
2023-05-05T19:11:18.217Z,100401.23
2023-05-05T19:12:22.558Z,100399.56
2023-05-05T19:13:25.813Z,100403.92
2023-05-05T19:14:28.208Z,100396.89
2023-05-05T19:16:43.990Z,100398.61
2023-05-05T19:17:48.113Z,100396.31
2023-05-05T19:18:57.126Z,100398.14
2023-05-05T19:20:07.243Z,100406.06
2023-05-05T19:21:15.289Z,100412.40
2023-05-05T19:22:23.309Z,100409.59
2023-05-05T19:23:28.335Z,100403.50
2023-05-05T19:24:30.848Z,100403.66
2023-05-05T19:25:34.151Z,100402.81
2023-05-05T19:27:58.627Z,100412.54
2023-05-05T19:29:04.986Z,100414.66
2023-05-05T19:30:09.018Z,100416.48
2023-05-05T19:31:11.730Z,100416.64
2023-05-05T19:32:14.692Z,100405.92
2023-05-05T19:33:18.833Z,100411.28
2023-05-05T19:34:21.445Z,100414.94
2023-05-05T19:35:24.321Z,100410.55
2023-05-05T19:36:28.475Z,100415.91
2023-05-05T19:37:31.304Z,100406.20
2023-05-05T19:38:36.024Z,100409.85
2023-05-05T19:39:40.096Z,100414.36
2023-05-05T19:40:42.801Z,100416.34
2023-05-05T19:41:44.981Z,100410.98
2023-05-05T19:42:48.179Z,100421.00
2023-05-05T19:43:53.226Z,100415.77
2023-05-05T19:44:58.822Z,100410.56
2023-05-05T19:46:01.689Z,100409.86
2023-05-05T19:47:04.973Z,100410.83
2023-05-05T19:48:07.169Z,100406.60
2023-05-05T19:49:14.064Z,100414.80
2023-05-05T19:50:19.378Z,100414.91
2023-05-05T19:51:26.629Z,100419.30
2023-05-05T19:52:32.124Z,100422.10
2023-05-05T19:53:36.313Z,100406.02
2023-05-05T19:54:39.583Z,100415.06
2023-05-05T19:55:41.623Z,100414.22
2023-05-05T19:56:46.834Z,100416.20
2023-05-05T19:57:49.088Z,100419.70
2023-05-05T19:59:02.888Z,100420.70
2023-05-05T20:06:25.859Z,100428.89
2023-05-05T20:07:28.135Z,100426.87
2023-05-05T20:08:40.151Z,100427.15
2023-05-05T20:09:45.014Z,100427.42
2023-05-05T20:10:51.760Z,100436.58
2023-05-05T20:11:58.978Z,100428.81
2023-05-05T20:13:01.750Z,100437.86
2023-05-05T20:14:04.051Z,100425.44
2023-05-05T20:15:08.107Z,100432.89
2023-05-05T20:16:11.394Z,100431.22
2023-05-05T20:17:15.805Z,100435.72
2023-05-05T20:18:18.667Z,100436.69
2023-05-05T20:19:20.925Z,100433.30
2023-05-05T20:20:24.843Z,100437.81
2023-05-05T20:21:28.244Z,100433.45
2023-05-05T20:22:30.447Z,100439.78
2023-05-05T20:23:32.631Z,100434.43
2023-05-05T20:24:37.926Z,100439.91
2023-05-05T20:25:40.119Z,100444.44
2023-05-05T20:26:43.503Z,100437.37
2023-05-05T20:27:46.548Z,100436.67
2023-05-05T20:28:48.718Z,100434.97
2023-05-05T20:29:50.797Z,100440.47
2023-05-05T20:30:53.621Z,100435.23
2023-05-05T20:31:56.455Z,100447.92
2023-05-05T20:32:59.255Z,100446.09
2023-05-05T20:34:01.672Z,100443.53
2023-05-05T20:35:04.414Z,100440.16
2023-05-05T20:36:11.593Z,100447.33
2023-05-05T20:37:15.940Z,100439.56
2023-05-05T20:38:18.382Z,100446.77
2023-05-05T20:39:26.095Z,100439.71
2023-05-05T20:40:31.171Z,100445.19
2023-05-05T20:41:33.622Z,100441.69
2023-05-05T20:42:35.805Z,100444.48
2023-05-05T20:43:39.633Z,100444.63
2023-05-05T20:44:41.790Z,100443.77
2023-05-05T20:45:44.466Z,100447.42
2023-05-05T20:46:46.764Z,100450.09
2023-05-05T20:47:49.472Z,100446.72
2023-05-05T20:48:51.593Z,100440.51
2023-05-05T20:49:55.343Z,100445.12
2023-05-05T20:51:02.402Z,100447.80
2023-05-05T20:52:05.845Z,100446.09
2023-05-05T20:53:09.146Z,100440.63
2023-05-05T20:54:11.233Z,100446.59
2023-05-05T20:55:13.403Z,100448.01
2023-05-05T20:56:15.771Z,100445.92
2023-05-05T20:57:18.180Z,100445.92
2023-05-05T20:59:37.274Z,100456.54
2023-05-05T21:00:42.139Z,100452.39
2023-05-05T21:01:48.809Z,100460.55
2023-05-05T21:02:51.495Z,100463.11
2023-05-05T21:03:54.935Z,100464.93
2023-05-05T21:04:57.606Z,100460.69
2023-05-05T21:06:01.019Z,100466.16
2023-05-05T21:07:05.116Z,100469.95
2023-05-05T21:08:12.557Z,100469.22
2023-05-05T21:09:14.975Z,100468.51
2023-05-05T21:10:24.093Z,100467.77
2023-05-05T21:11:30.738Z,100467.92
2023-05-05T21:12:34.221Z,100469.03
2023-05-05T21:13:36.795Z,100470.00
2023-05-05T21:14:43.801Z,100474.65
2023-05-05T21:15:48.395Z,100472.23
2023-05-05T21:16:53.896Z,100471.37
2023-05-05T21:17:59.508Z,100477.84
2023-05-05T21:19:05.936Z,100476.28
2023-05-05T21:20:12.491Z,100475.58
2023-05-05T21:21:23.013Z,100474.02
2023-05-05T21:22:31.780Z,100471.45
2023-05-05T21:23:38.293Z,100476.09
2023-05-05T21:24:45.464Z,100485.09
2023-05-05T21:25:47.578Z,100472.00
2023-05-05T21:28:02.962Z,100475.69
2023-05-05T21:29:08.480Z,100485.75
2023-05-05T21:30:12.188Z,100483.22
2023-05-05T21:31:21.651Z,100484.19
2023-05-05T21:32:19.115Z,100482.62
2023-05-05T21:33:22.626Z,100484.45
2023-05-05T21:34:24.816Z,100489.94
2023-05-05T21:35:27.349Z,100483.02
2023-05-05T21:36:29.750Z,100483.14
2023-05-05T21:37:34.071Z,100485.09
2023-05-05T21:38:39.176Z,100484.50
2023-05-05T21:39:42.478Z,100493.63
2023-05-05T21:40:45.200Z,100489.39
2023-05-05T21:41:47.259Z,100495.74
2023-05-05T21:42:49.506Z,100490.50
2023-05-05T21:43:54.489Z,100491.61
2023-05-05T21:44:56.679Z,100494.54
2023-05-05T21:45:59.848Z,100500.14
2023-05-05T21:47:02.474Z,100500.39
2023-05-05T21:48:06.243Z,100497.00
2023-05-05T21:49:13.869Z,100498.11
2023-05-05T21:50:19.487Z,100511.48
2023-05-05T21:51:21.666Z,100509.06
2023-05-05T21:52:25.781Z,100500.18
2023-05-05T21:53:28.055Z,100506.53
2023-05-05T21:54:37.795Z,100505.78
2023-05-05T21:55:39.910Z,100505.92
2023-05-05T21:56:46.158Z,100501.79
2023-05-05T21:57:48.651Z,100505.45
2023-05-05T21:58:51.867Z,100508.38
2023-05-05T21:59:56.988Z,100508.38
2023-05-05T22:02:09.097Z,100505.78
2023-05-05T22:03:14.220Z,100507.20
2023-05-05T22:04:18.779Z,100504.53
2023-05-05T22:05:20.998Z,100503.78
2023-05-05T22:06:26.205Z,100510.84
2023-05-05T22:07:28.439Z,100509.13
2023-05-05T22:08:31.503Z,100505.49
2023-05-05T22:09:33.732Z,100518.86
2023-05-05T22:10:38.660Z,100503.20
2023-05-05T22:11:41.106Z,100514.61
2023-05-05T22:12:43.182Z,100513.75
2023-05-05T22:13:46.545Z,100514.61
2023-05-05T22:14:48.756Z,100505.88
2023-05-05T22:15:50.990Z,100508.55
2023-05-05T22:16:55.511Z,100510.37
2023-05-05T22:17:57.704Z,100511.22
2023-05-05T22:18:59.827Z,100502.20
2023-05-05T22:20:02.668Z,100509.52
2023-05-05T22:21:05.635Z,100512.19
2023-05-05T22:23:18.962Z,100506.20
2023-05-05T22:24:20.918Z,100502.98
2023-05-05T22:25:22.900Z,100510.11
2023-05-05T22:26:25.408Z,100519.02
2023-05-05T22:27:27.598Z,100514.60
2023-05-05T22:28:30.062Z,100513.03
2023-05-05T22:29:32.108Z,100510.47
2023-05-05T22:30:34.369Z,100508.65
2023-05-05T22:31:36.656Z,100516.80
2023-05-05T22:32:38.877Z,100512.31
2023-05-05T22:33:42.018Z,100517.52
2023-05-05T22:34:44.859Z,100509.64
2023-05-05T22:35:47.605Z,100519.48
2023-05-05T22:36:49.686Z,100520.58
2023-05-05T22:37:51.843Z,100516.19
2023-05-05T22:38:53.754Z,100515.48
2023-05-05T22:41:11.867Z,100513.27
2023-05-05T22:42:15.098Z,100515.35
2023-05-05T22:43:17.569Z,100526.03
2023-05-05T22:44:19.706Z,100522.52
2023-05-05T22:45:22.402Z,100524.36
2023-05-05T22:46:24.599Z,100526.28
2023-05-05T22:47:26.927Z,100530.80
2023-05-05T22:48:29.037Z,100541.59
2023-05-05T22:49:32.224Z,100527.52
2023-05-05T22:50:35.975Z,100540.97
2023-05-05T22:51:40.196Z,100537.48
2023-05-05T22:52:43.469Z,100536.73
2023-05-05T22:53:46.090Z,100533.23
2023-05-05T22:54:48.986Z,100537.83
2023-05-05T22:55:51.652Z,100536.14
2023-05-05T22:58:09.677Z,100530.91
2023-05-05T22:59:11.773Z,100524.95
2023-05-05T23:00:15.127Z,100525.94
2023-05-05T23:01:17.386Z,100527.89
2023-05-05T23:02:19.495Z,100528.95
2023-05-05T23:03:21.672Z,100525.46
2023-05-05T23:04:25.653Z,100525.56
2023-05-05T23:05:27.857Z,100536.38
2023-05-05T23:06:30.795Z,100525.22